sensor_id;sensor_type;location;lat;lon;timestamp;pressure;altitude;pressure_sealevel;temperature;humidity
67931;BME280;54726;52.000;5.954;2022-08-19T00:00:17;100968.25;;;17.16;87.84
67931;BME280;54726;52.000;5.954;2022-08-19T00:01:17;100977.03;;;17.18;87.92
67931;BME280;54726;52.000;5.954;2022-08-19T00:02:18;100973.50;;;17.18;87.88
67931;BME280;54726;52.000;5.954;2022-08-19T00:03:19;100965.56;;;17.16;88.00
67931;BME280;54726;52.000;5.954;2022-08-19T00:04:22;100970.06;;;17.16;87.95
67931;BME280;54726;52.000;5.954;2022-08-19T00:05:22;100969.41;;;17.12;88.14
67931;BME280;54726;52.000;5.954;2022-08-19T00:06:23;100964.25;;;17.09;88.26
67931;BME280;54726;52.000;5.954;2022-08-19T00:07:23;100963.63;;;17.06;88.29
67931;BME280;54726;52.000;5.954;2022-08-19T00:08:24;100957.56;;;17.02;88.35
67931;BME280;54726;52.000;5.954;2022-08-19T00:09:25;100960.38;;;17.00;88.69
67931;BME280;54726;52.000;5.954;2022-08-19T00:10:25;100957.56;;;17.02;88.34
67931;BME280;54726;52.000;5.954;2022-08-19T00:11:27;100959.53;;;17.00;88.38
67931;BME280;54726;52.000;5.954;2022-08-19T00:12:27;100967.34;;;17.03;88.56
67931;BME280;54726;52.000;5.954;2022-08-19T00:13:28;100959.41;;;17.02;88.49
67931;BME280;54726;52.000;5.954;2022-08-19T00:14:29;100970.25;;;17.00;88.47
67931;BME280;54726;52.000;5.954;2022-08-19T00:15:29;100958.84;;;16.96;88.44
67931;BME280;54726;52.000;5.954;2022-08-19T00:16:30;100972.91;;;17.00;88.30
67931;BME280;54726;52.000;5.954;2022-08-19T00:17:30;100961.44;;;16.98;88.59
67931;BME280;54726;52.000;5.954;2022-08-19T00:18:32;100970.41;;;16.97;88.87
67931;BME280;54726;52.000;5.954;2022-08-19T00:19:34;100967.00;;;16.95;88.65
67931;BME280;54726;52.000;5.954;2022-08-19T00:20:35;100969.75;;;16.93;88.80
67931;BME280;54726;52.000;5.954;2022-08-19T00:21:36;100971.66;;;16.91;88.82
67931;BME280;54726;52.000;5.954;2022-08-19T00:22:36;100970.94;;;16.89;88.98
67931;BME280;54726;52.000;5.954;2022-08-19T00:23:36;100971.88;;;16.88;88.92
67931;BME280;54726;52.000;5.954;2022-08-19T00:24:37;100971.22;;;16.85;89.20
67931;BME280;54726;52.000;5.954;2022-08-19T00:25:37;100969.50;;;16.84;89.09
67931;BME280;54726;52.000;5.954;2022-08-19T00:26:39;100966.06;;;16.82;89.26
67931;BME280;54726;52.000;5.954;2022-08-19T00:27:40;100963.47;;;16.80;89.36
67931;BME280;54726;52.000;5.954;2022-08-19T00:28:41;100970.78;;;16.78;89.29
67931;BME280;54726;52.000;5.954;2022-08-19T00:29:41;100951.72;;;16.68;89.47
67931;BME280;54726;52.000;5.954;2022-08-19T00:30:41;100968.19;;;16.76;89.30
67931;BME280;54726;52.000;5.954;2022-08-19T00:31:42;100963.69;;;16.77;89.41
67931;BME280;54726;52.000;5.954;2022-08-19T00:32:43;100957.63;;;16.73;89.31
67931;BME280;54726;52.000;5.954;2022-08-19T00:33:45;100955.94;;;16.72;89.58
67931;BME280;54726;52.000;5.954;2022-08-19T00:34:45;100952.28;;;16.73;89.60
67931;BME280;54726;52.000;5.954;2022-08-19T00:35:45;100955.94;;;16.72;89.49
67931;BME280;54726;52.000;5.954;2022-08-19T00:36:46;100949.78;;;16.70;89.67
67931;BME280;54726;52.000;5.954;2022-08-19T00:37:48;100947.97;;;16.71;89.49
67931;BME280;54726;52.000;5.954;2022-08-19T00:38:49;100955.16;;;16.70;89.58
67931;BME280;54726;52.000;5.954;2022-08-19T00:39:49;100947.13;;;16.70;89.64
67931;BME280;54726;52.000;5.954;2022-08-19T00:40:50;100953.44;;;16.69;89.81
67931;BME280;54726;52.000;5.954;2022-08-19T00:41:50;100952.69;;;16.67;90.05
67931;BME280;54726;52.000;5.954;2022-08-19T00:42:51;100953.63;;;16.66;89.79
67931;BME280;54726;52.000;5.954;2022-08-19T00:44:00;100955.56;;;16.64;89.72
67931;BME280;54726;52.000;5.954;2022-08-19T00:45:01;100956.50;;;16.63;89.72
67931;BME280;54726;52.000;5.954;2022-08-19T00:46:01;100955.75;;;16.61;89.72
67931;BME280;54726;52.000;5.954;2022-08-19T00:47:03;100957.66;;;16.59;89.78
67931;BME280;54726;52.000;5.954;2022-08-19T00:48:03;100963.09;;;16.58;89.74
67931;BME280;54726;52.000;5.954;2022-08-19T00:49:10;100959.69;;;16.55;89.97
67931;BME280;54726;52.000;5.954;2022-08-19T00:50:13;100961.47;;;16.55;90.03
67931;BME280;54726;52.000;5.954;2022-08-19T00:51:15;100959.78;;;16.54;89.96
67931;BME280;54726;52.000;5.954;2022-08-19T00:52:20;100965.25;;;16.52;90.22
67931;BME280;54726;52.000;5.954;2022-08-19T00:53:24;100965.25;;;16.52;90.09
67931;BME280;54726;52.000;5.954;2022-08-19T00:54:26;100964.34;;;16.52;89.77
67931;BME280;54726;52.000;5.954;2022-08-19T00:55:28;100959.19;;;16.49;90.12
67931;BME280;54726;52.000;5.954;2022-08-19T00:56:29;100965.31;;;16.51;90.19
67931;BME280;54726;52.000;5.954;2022-08-19T00:57:35;100965.41;;;16.49;90.15
67931;BME280;54726;52.000;5.954;2022-08-19T00:58:37;100968.09;;;16.49;89.97
67931;BME280;54726;52.000;5.954;2022-08-19T00:59:40;100966.50;;;16.47;90.07
67931;BME280;54726;52.000;5.954;2022-08-19T01:00:41;100973.63;;;16.46;90.03
67931;BME280;54726;52.000;5.954;2022-08-19T01:01:42;100967.63;;;16.43;90.30
67931;BME280;54726;52.000;5.954;2022-08-19T01:02:43;100973.84;;;16.43;90.30
67931;BME280;54726;52.000;5.954;2022-08-19T01:03:44;100970.31;;;16.43;90.30
67931;BME280;54726;52.000;5.954;2022-08-19T01:04:46;100966.00;;;16.40;90.09
67931;BME280;54726;52.000;5.954;2022-08-19T01:05:47;100969.66;;;16.39;90.20
67931;BME280;54726;52.000;5.954;2022-08-19T01:06:48;100962.56;;;16.38;90.21
67931;BME280;54726;52.000;5.954;2022-08-19T01:07:49;100971.47;;;16.39;90.35
67931;BME280;54726;52.000;5.954;2022-08-19T01:08:50;100963.44;;;16.39;90.25
67931;BME280;54726;52.000;5.954;2022-08-19T01:09:51;100969.72;;;16.38;90.19
67931;BME280;54726;52.000;5.954;2022-08-19T01:10:53;100971.56;;;16.37;90.14
67931;BME280;54726;52.000;5.954;2022-08-19T01:11:55;100969.00;;;16.36;90.21
67931;BME280;54726;52.000;5.954;2022-08-19T01:12:58;100968.09;;;16.35;90.24
67931;BME280;54726;52.000;5.954;2022-08-19T01:13:59;100967.25;;;16.34;90.18
67931;BME280;54726;52.000;5.954;2022-08-19T01:15:00;100959.41;;;16.31;90.49
67931;BME280;54726;52.000;5.954;2022-08-19T01:16:04;100964.88;;;16.30;90.23
67931;BME280;54726;52.000;5.954;2022-08-19T01:17:06;100961.31;;;16.29;90.39
67931;BME280;54726;52.000;5.954;2022-08-19T01:18:09;100954.34;;;16.27;90.34
67931;BME280;54726;52.000;5.954;2022-08-19T01:19:15;100970.31;;;16.28;90.44
67931;BME280;54726;52.000;5.954;2022-08-19T01:20:22;100962.38;;;16.27;90.19
67931;BME280;54726;52.000;5.954;2022-08-19T01:21:32;100964.19;;;16.26;90.30
67931;BME280;54726;52.000;5.954;2022-08-19T01:22:41;100970.41;;;16.27;90.24
67931;BME280;54726;52.000;5.954;2022-08-19T01:23:43;100976.72;;;16.26;90.17
67931;BME280;54726;52.000;5.954;2022-08-19T01:24:44;100971.44;;;16.24;90.12
67931;BME280;54726;52.000;5.954;2022-08-19T01:25:47;100971.63;;;16.21;90.53
67931;BME280;54726;52.000;5.954;2022-08-19T01:26:48;100977.97;;;16.20;90.21
67931;BME280;54726;52.000;5.954;2022-08-19T01:27:49;100975.38;;;16.19;90.39
67931;BME280;54726;52.000;5.954;2022-08-19T01:28:52;100975.38;;;16.19;90.42
67931;BME280;54726;52.000;5.954;2022-08-19T01:29:53;100978.03;;;16.19;90.47
67931;BME280;54726;52.000;5.954;2022-08-19T01:30:55;100977.09;;;16.20;90.52
67931;BME280;54726;52.000;5.954;2022-08-19T01:31:55;100977.97;;;16.20;90.32
67931;BME280;54726;52.000;5.954;2022-08-19T01:32:56;100976.13;;;16.21;90.46
67931;BME280;54726;52.000;5.954;2022-08-19T01:33:57;100982.16;;;16.24;90.35
67931;BME280;54726;52.000;5.954;2022-08-19T01:34:58;100975.88;;;16.25;90.13
67931;BME280;54726;52.000;5.954;2022-08-19T01:36:05;100974.03;;;16.26;90.37
67931;BME280;54726;52.000;5.954;2022-08-19T01:37:07;100974.91;;;16.26;90.19
67931;BME280;54726;52.000;5.954;2022-08-19T01:38:18;100972.34;;;16.25;90.14
67931;BME280;54726;52.000;5.954;2022-08-19T01:39:21;100974.91;;;16.26;90.25
67931;BME280;54726;52.000;5.954;2022-08-19T01:40:26;100968.69;;;16.26;90.14
67931;BME280;54726;52.000;5.954;2022-08-19T01:41:27;100962.75;;;16.21;90.22
67931;BME280;54726;52.000;5.954;2022-08-19T01:42:27;100965.34;;;16.22;90.48
67931;BME280;54726;52.000;5.954;2022-08-19T01:43:27;100960.06;;;16.21;90.26
67931;BME280;54726;52.000;5.954;2022-08-19T01:44:28;100967.06;;;16.23;90.55
67931;BME280;54726;52.000;5.954;2022-08-19T01:45:31;100967.84;;;16.25;90.27
67931;BME280;54726;52.000;5.954;2022-08-19T01:46:32;100968.59;;;16.27;90.25
67931;BME280;54726;52.000;5.954;2022-08-19T01:47:33;100974.69;;;16.29;90.36
67931;BME280;54726;52.000;5.954;2022-08-19T01:48:35;100971.09;;;16.30;90.31
67931;BME280;54726;52.000;5.954;2022-08-19T01:49:36;100973.56;;;16.33;89.97
67931;BME280;54726;52.000;5.954;2022-08-19T01:50:37;100971.75;;;16.34;89.94
67931;BME280;54726;52.000;5.954;2022-08-19T01:51:38;100977.03;;;16.36;90.14
67931;BME280;54726;52.000;5.954;2022-08-19T01:52:41;100975.28;;;16.34;90.26
67931;BME280;54726;52.000;5.954;2022-08-19T01:53:46;100971.75;;;16.34;90.17
67931;BME280;54726;52.000;5.954;2022-08-19T01:54:47;100977.88;;;16.36;89.93
67931;BME280;54726;52.000;5.954;2022-08-19T01:55:47;100975.84;;;16.40;89.89
67931;BME280;54726;52.000;5.954;2022-08-19T01:56:48;100961.69;;;16.38;90.22
67931;BME280;54726;52.000;5.954;2022-08-19T01:57:51;100975.84;;;16.40;90.04
67931;BME280;54726;52.000;5.954;2022-08-19T01:58:56;100966.84;;;16.41;90.08
67931;BME280;54726;52.000;5.954;2022-08-19T01:59:57;100966.66;;;16.44;90.26
67931;BME280;54726;52.000;5.954;2022-08-19T02:00:58;100970.09;;;16.46;89.92
67931;BME280;54726;52.000;5.954;2022-08-19T02:01:59;100973.56;;;16.48;89.91
67931;BME280;54726;52.000;5.954;2022-08-19T02:02:59;100966.38;;;16.48;89.81
67931;BME280;54726;52.000;5.954;2022-08-19T02:04:00;100971.66;;;16.50;90.00
67931;BME280;54726;52.000;5.954;2022-08-19T02:05:00;100968.97;;;16.50;90.10
67931;BME280;54726;52.000;5.954;2022-08-19T02:06:02;100972.38;;;16.52;89.89
67931;BME280;54726;52.000;5.954;2022-08-19T02:07:02;100976.81;;;16.53;89.70
67931;BME280;54726;52.000;5.954;2022-08-19T02:08:04;100971.44;;;16.53;89.81
67931;BME280;54726;52.000;5.954;2022-08-19T02:09:06;100970.88;;;16.48;89.91
67931;BME280;54726;52.000;5.954;2022-08-19T02:10:10;100983.00;;;16.53;90.05
67931;BME280;54726;52.000;5.954;2022-08-19T02:11:18;100979.47;;;16.53;90.11
67931;BME280;54726;52.000;5.954;2022-08-19T02:12:19;100981.31;;;16.52;89.95
67931;BME280;54726;52.000;5.954;2022-08-19T02:13:19;100982.91;;;16.55;89.90
67931;BME280;54726;52.000;5.954;2022-08-19T02:14:19;100990.09;;;16.54;89.97
67931;BME280;54726;52.000;5.954;2022-08-19T02:15:20;100980.22;;;16.55;89.80
67931;BME280;54726;52.000;5.954;2022-08-19T02:16:21;100978.50;;;16.54;89.86
67931;BME280;54726;52.000;5.954;2022-08-19T02:17:21;100985.41;;;16.58;89.99
67931;BME280;54726;52.000;5.954;2022-08-19T02:18:22;100978.31;;;16.57;90.10
67931;BME280;54726;52.000;5.954;2022-08-19T02:19:22;100989.81;;;16.59;90.07
67931;BME280;54726;52.000;5.954;2022-08-19T02:20:22;100988.84;;;16.60;89.94
67931;BME280;54726;52.000;5.954;2022-08-19T02:21:23;100979.84;;;16.61;90.14
67931;BME280;54726;52.000;5.954;2022-08-19T02:22:24;100975.34;;;16.62;89.84
67931;BME280;54726;52.000;5.954;2022-08-19T02:23:25;100977.25;;;16.60;90.49
67931;BME280;54726;52.000;5.954;2022-08-19T02:24:27;100978.97;;;16.61;89.93
67931;BME280;54726;52.000;5.954;2022-08-19T02:25:27;100979.75;;;16.63;90.13
67931;BME280;54726;52.000;5.954;2022-08-19T02:26:28;100976.22;;;16.62;90.28
67931;BME280;54726;52.000;5.954;2022-08-19T02:27:29;100981.56;;;16.62;90.20
67931;BME280;54726;52.000;5.954;2022-08-19T02:28:29;100979.84;;;16.61;89.93
67931;BME280;54726;52.000;5.954;2022-08-19T02:29:29;100982.53;;;16.61;90.22
67931;BME280;54726;52.000;5.954;2022-08-19T02:30:30;100987.13;;;16.59;90.08
67931;BME280;54726;52.000;5.954;2022-08-19T02:31:31;100987.13;;;16.59;90.49
67931;BME280;54726;52.000;5.954;2022-08-19T02:32:31;100990.78;;;16.58;90.28
67931;BME280;54726;52.000;5.954;2022-08-19T02:33:32;100983.69;;;16.57;90.33
67931;BME280;54726;52.000;5.954;2022-08-19T02:34:32;100985.56;;;16.55;90.32
67931;BME280;54726;52.000;5.954;2022-08-19T02:35:33;100987.41;;;16.54;90.33
67931;BME280;54726;52.000;5.954;2022-08-19T02:36:33;100990.09;;;16.54;90.19
67931;BME280;54726;52.000;5.954;2022-08-19T02:37:34;100991.34;;;16.49;90.51
67931;BME280;54726;52.000;5.954;2022-08-19T02:38:35;100991.34;;;16.49;90.63
67931;BME280;54726;52.000;5.954;2022-08-19T02:39:37;100977.28;;;16.45;90.61
67931;BME280;54726;52.000;5.954;2022-08-19T02:40:37;100986.94;;;16.48;90.87
67931;BME280;54726;52.000;5.954;2022-08-19T02:41:37;100983.50;;;16.46;91.00
67931;BME280;54726;52.000;5.954;2022-08-19T02:42:38;100983.50;;;16.46;90.80
67931;BME280;54726;52.000;5.954;2022-08-19T02:43:39;100979.19;;;16.43;90.94
67931;BME280;54726;52.000;5.954;2022-08-19T02:44:39;100980.03;;;16.44;90.69
67931;BME280;54726;52.000;5.954;2022-08-19T02:45:39;100971.28;;;16.42;90.79
67931;BME280;54726;52.000;5.954;2022-08-19T02:46:40;100976.72;;;16.40;90.94
67931;BME280;54726;52.000;5.954;2022-08-19T02:47:40;100976.06;;;16.37;90.93
67931;BME280;54726;52.000;5.954;2022-08-19T02:48:41;100982.38;;;16.36;91.03
67931;BME280;54726;52.000;5.954;2022-08-19T02:49:41;100975.28;;;16.34;91.02
67931;BME280;54726;52.000;5.954;2022-08-19T02:50:42;100975.28;;;16.34;91.13
67931;BME280;54726;52.000;5.954;2022-08-19T02:51:44;100976.31;;;16.32;91.29
67931;BME280;54726;52.000;5.954;2022-08-19T02:52:45;100979.19;;;16.29;91.05
67931;BME280;54726;52.000;5.954;2022-08-19T02:53:46;100975.75;;;16.27;91.24
67931;BME280;54726;52.000;5.954;2022-08-19T02:54:48;100977.69;;;16.25;91.60
67931;BME280;54726;52.000;5.954;2022-08-19T02:55:49;100978.53;;;16.25;91.41
67931;BME280;54726;52.000;5.954;2022-08-19T02:56:49;100975.09;;;16.23;91.53
67931;BME280;54726;52.000;5.954;2022-08-19T02:57:50;100975.09;;;16.23;91.68
67931;BME280;54726;52.000;5.954;2022-08-19T02:58:50;100977.19;;;16.18;91.68
67931;BME280;54726;52.000;5.954;2022-08-19T02:59:51;100984.16;;;16.21;91.49
67931;BME280;54726;52.000;5.954;2022-08-19T03:00:53;100987.81;;;16.20;91.39
67931;BME280;54726;52.000;5.954;2022-08-19T03:01:54;100977.19;;;16.18;91.51
67931;BME280;54726;52.000;5.954;2022-08-19T03:02:54;100988.09;;;16.15;91.37
67931;BME280;54726;52.000;5.954;2022-08-19T03:03:56;100977.56;;;16.12;91.83
67931;BME280;54726;52.000;5.954;2022-08-19T03:04:57;100967.53;;;16.01;91.87
67931;BME280;54726;52.000;5.954;2022-08-19T03:06:09;100984.16;;;16.06;91.48
67931;BME280;54726;52.000;5.954;2022-08-19T03:07:12;100985.13;;;16.05;91.78
67931;BME280;54726;52.000;5.954;2022-08-19T03:08:13;100982.53;;;16.04;91.66
67931;BME280;54726;52.000;5.954;2022-08-19T03:09:14;100985.22;;;16.04;91.69
67931;BME280;54726;52.000;5.954;2022-08-19T03:10:16;100990.75;;;16.01;91.87
67931;BME280;54726;52.000;5.954;2022-08-19T03:11:19;100984.53;;;16.00;91.96
67931;BME280;54726;52.000;5.954;2022-08-19T03:12:20;100989.97;;;15.99;91.89
67931;BME280;54726;52.000;5.954;2022-08-19T03:13:21;100988.34;;;15.96;92.00
67931;BME280;54726;52.000;5.954;2022-08-19T03:14:21;100987.50;;;15.96;92.07
67931;BME280;54726;52.000;5.954;2022-08-19T03:15:22;100982.31;;;15.93;92.04
67931;BME280;54726;52.000;5.954;2022-08-19T03:16:25;100983.19;;;15.93;92.07
67931;BME280;54726;52.000;5.954;2022-08-19T03:17:26;100983.97;;;15.95;91.96
67931;BME280;54726;52.000;5.954;2022-08-19T03:18:26;100987.50;;;15.96;91.83
67931;BME280;54726;52.000;5.954;2022-08-19T03:19:26;100982.31;;;15.93;91.99
67931;BME280;54726;52.000;5.954;2022-08-19T03:20:27;100985.97;;;15.92;92.13
67931;BME280;54726;52.000;5.954;2022-08-19T03:21:30;100992.25;;;15.91;92.04
67931;BME280;54726;52.000;5.954;2022-08-19T03:22:31;100991.50;;;15.88;91.90
67931;BME280;54726;52.000;5.954;2022-08-19T03:23:32;100986.16;;;15.88;92.29
67931;BME280;54726;52.000;5.954;2022-08-19T03:24:32;100995.13;;;15.87;91.88
67931;BME280;54726;52.000;5.954;2022-08-19T03:25:38;100989.03;;;15.85;92.42
67931;BME280;54726;52.000;5.954;2022-08-19T03:26:40;100991.78;;;15.84;92.12
67931;BME280;54726;52.000;5.954;2022-08-19T03:27:40;100991.97;;;15.81;91.92
67931;BME280;54726;52.000;5.954;2022-08-19T03:28:41;100989.38;;;15.79;92.32
67931;BME280;54726;52.000;5.954;2022-08-19T03:29:41;100984.31;;;15.75;92.23
67931;BME280;54726;52.000;5.954;2022-08-19T03:30:43;100988.69;;;15.76;92.33
67931;BME280;54726;52.000;5.954;2022-08-19T03:31:44;100998.53;;;15.75;92.38
67931;BME280;54726;52.000;5.954;2022-08-19T03:32:44;100989.00;;;15.71;92.36
67931;BME280;54726;52.000;5.954;2022-08-19T03:33:45;100989.94;;;15.70;92.59
67931;BME280;54726;52.000;5.954;2022-08-19T03:34:45;100992.59;;;15.70;92.42
67931;BME280;54726;52.000;5.954;2022-08-19T03:35:46;100991.75;;;15.70;92.42
67931;BME280;54726;52.000;5.954;2022-08-19T03:36:47;100990.88;;;15.69;92.45
67931;BME280;54726;52.000;5.954;2022-08-19T03:37:47;100989.16;;;15.68;92.36
67931;BME280;54726;52.000;5.954;2022-08-19T03:38:50;100992.81;;;15.65;92.25
67931;BME280;54726;52.000;5.954;2022-08-19T03:39:51;100997.50;;;15.62;92.39
67931;BME280;54726;52.000;5.954;2022-08-19T03:40:52;100992.34;;;15.59;92.46
67931;BME280;54726;52.000;5.954;2022-08-19T03:41:54;100989.94;;;15.54;92.63
67931;BME280;54726;52.000;5.954;2022-08-19T03:42:55;100988.34;;;15.52;92.95
67931;BME280;54726;52.000;5.954;2022-08-19T03:43:56;100985.81;;;15.49;92.88
67931;BME280;54726;52.000;5.954;2022-08-19T03:44:56;100985.72;;;15.50;92.91
67931;BME280;54726;52.000;5.954;2022-08-19T03:46:01;100990.22;;;15.50;92.71
67931;BME280;54726;52.000;5.954;2022-08-19T03:47:03;100992.91;;;15.50;92.94
67931;BME280;54726;52.000;5.954;2022-08-19T03:48:04;100986.59;;;15.51;92.68
67931;BME280;54726;52.000;5.954;2022-08-19T03:49:04;100984.88;;;15.50;92.93
67931;BME280;54726;52.000;5.954;2022-08-19T03:50:05;100985.72;;;15.50;92.56
67931;BME280;54726;52.000;5.954;2022-08-19T03:51:06;100982.22;;;15.50;92.71
67931;BME280;54726;52.000;5.954;2022-08-19T03:52:06;100987.72;;;15.47;92.75
67931;BME280;54726;52.000;5.954;2022-08-19T03:53:07;100991.44;;;15.44;92.85
67931;BME280;54726;52.000;5.954;2022-08-19T03:54:10;100993.16;;;15.45;92.93
67931;BME280;54726;52.000;5.954;2022-08-19T03:55:11;100992.47;;;15.41;92.76
67931;BME280;54726;52.000;5.954;2022-08-19T03:56:13;100991.63;;;15.41;92.97
67931;BME280;54726;52.000;5.954;2022-08-19T03:57:14;100987.22;;;15.40;93.03
67931;BME280;54726;52.000;5.954;2022-08-19T03:58:14;100983.69;;;15.39;92.74
67931;BME280;54726;52.000;5.954;2022-08-19T03:59:17;100992.56;;;15.40;92.96
67931;BME280;54726;52.000;5.954;2022-08-19T04:00:18;100986.47;;;15.38;92.90
67931;BME280;54726;52.000;5.954;2022-08-19T04:01:21;100993.69;;;15.36;92.66
67931;BME280;54726;52.000;5.954;2022-08-19T04:02:22;100989.41;;;15.33;93.19
67931;BME280;54726;52.000;5.954;2022-08-19T04:03:23;100991.22;;;15.33;93.19
67931;BME280;54726;52.000;5.954;2022-08-19T04:04:24;100985.09;;;15.31;92.97
67931;BME280;54726;52.000;5.954;2022-08-19T04:05:26;100991.22;;;15.33;92.92
67931;BME280;54726;52.000;5.954;2022-08-19T04:06:28;100990.34;;;15.32;93.08
67931;BME280;54726;52.000;5.954;2022-08-19T04:07:29;100991.28;;;15.31;92.91
67931;BME280;54726;52.000;5.954;2022-08-19T04:08:29;100992.25;;;15.30;93.10
67931;BME280;54726;52.000;5.954;2022-08-19T04:09:30;100994.06;;;15.30;93.11
67931;BME280;54726;52.000;5.954;2022-08-19T04:10:31;100990.53;;;15.29;92.82
67931;BME280;54726;52.000;5.954;2022-08-19T04:11:39;100996.91;;;15.27;93.10
67931;BME280;54726;52.000;5.954;2022-08-19T04:12:39;100989.94;;;15.24;93.10
67931;BME280;54726;52.000;5.954;2022-08-19T04:13:40;100986.50;;;15.22;93.05
67931;BME280;54726;52.000;5.954;2022-08-19T04:14:41;100988.19;;;15.23;93.21
67931;BME280;54726;52.000;5.954;2022-08-19T04:15:43;100990.97;;;15.21;93.13
67931;BME280;54726;52.000;5.954;2022-08-19T04:16:45;100986.66;;;15.19;93.21
67931;BME280;54726;52.000;5.954;2022-08-19T04:17:45;100982.19;;;15.19;93.12
67931;BME280;54726;52.000;5.954;2022-08-19T04:18:47;100990.31;;;15.18;93.21
67931;BME280;54726;52.000;5.954;2022-08-19T04:19:47;100993.03;;;15.16;93.38
67931;BME280;54726;52.000;5.954;2022-08-19T04:20:48;100989.69;;;15.13;93.16
67931;BME280;54726;52.000;5.954;2022-08-19T04:21:50;100987.97;;;15.12;93.36
67931;BME280;54726;52.000;5.954;2022-08-19T04:22:51;100990.72;;;15.10;93.31
67931;BME280;54726;52.000;5.954;2022-08-19T04:23:52;100992.69;;;15.07;93.46
67931;BME280;54726;52.000;5.954;2022-08-19T04:24:52;100993.75;;;15.04;93.43
67931;BME280;54726;52.000;5.954;2022-08-19T04:25:54;100982.28;;;15.02;93.54
67931;BME280;54726;52.000;5.954;2022-08-19T04:26:56;100986.00;;;14.99;93.61
67931;BME280;54726;52.000;5.954;2022-08-19T04:27:56;100978.94;;;14.98;93.58
67931;BME280;54726;52.000;5.954;2022-08-19T04:28:57;100978.16;;;14.96;93.56
67931;BME280;54726;52.000;5.954;2022-08-19T04:29:58;100979.03;;;14.97;93.70
67931;BME280;54726;52.000;5.954;2022-08-19T04:30:58;100979.81;;;14.99;93.45
67931;BME280;54726;52.000;5.954;2022-08-19T04:31:59;100978.94;;;14.98;93.61
67931;BME280;54726;52.000;5.954;2022-08-19T04:32:59;100976.09;;;15.02;93.60
67931;BME280;54726;52.000;5.954;2022-08-19T04:34:00;100966.25;;;15.02;93.27
67931;BME280;54726;52.000;5.954;2022-08-19T04:35:01;100967.13;;;15.03;93.45
67931;BME280;54726;52.000;5.954;2022-08-19T04:36:02;100969.78;;;15.03;93.37
67931;BME280;54726;52.000;5.954;2022-08-19T04:37:05;100979.69;;;15.00;93.20
67931;BME280;54726;52.000;5.954;2022-08-19T04:38:06;100960.38;;;14.95;93.39
67931;BME280;54726;52.000;5.954;2022-08-19T04:39:09;100967.28;;;14.99;93.74
67931;BME280;54726;52.000;5.954;2022-08-19T04:40:10;100969.19;;;14.97;93.39
67931;BME280;54726;52.000;5.954;2022-08-19T04:41:10;100970.22;;;14.95;93.43
67931;BME280;54726;52.000;5.954;2022-08-19T04:42:12;100966.88;;;14.91;93.46
67931;BME280;54726;52.000;5.954;2022-08-19T04:43:13;100965.34;;;14.87;93.83
67931;BME280;54726;52.000;5.954;2022-08-19T04:44:14;100966.53;;;14.82;93.75
67931;BME280;54726;52.000;5.954;2022-08-19T04:45:14;100964.63;;;14.84;93.73
67931;BME280;54726;52.000;5.954;2022-08-19T04:46:15;100970.06;;;14.82;93.79
67931;BME280;54726;52.000;5.954;2022-08-19T04:47:15;100963.88;;;14.82;93.75
67931;BME280;54726;52.000;5.954;2022-08-19T04:48:15;100967.47;;;14.81;93.60
67931;BME280;54726;52.000;5.954;2022-08-19T04:49:17;100965.66;;;14.81;93.90
67931;BME280;54726;52.000;5.954;2022-08-19T04:50:17;100969.22;;;14.82;93.71
67931;BME280;54726;52.000;5.954;2022-08-19T04:51:18;100968.34;;;14.81;93.75
67931;BME280;54726;52.000;5.954;2022-08-19T04:52:18;100963.88;;;14.82;93.71
67931;BME280;54726;52.000;5.954;2022-08-19T04:53:19;100968.34;;;14.81;93.70
67931;BME280;54726;52.000;5.954;2022-08-19T04:54:21;100968.44;;;14.80;93.73
67931;BME280;54726;52.000;5.954;2022-08-19T04:55:22;100971.19;;;14.78;93.71
67931;BME280;54726;52.000;5.954;2022-08-19T04:56:23;100977.31;;;14.80;93.74
67931;BME280;54726;52.000;5.954;2022-08-19T04:57:25;100970.25;;;14.79;93.57
67931;BME280;54726;52.000;5.954;2022-08-19T04:58:27;100972.81;;;14.81;93.82
67931;BME280;54726;52.000;5.954;2022-08-19T04:59:28;100976.28;;;14.83;93.72
67931;BME280;54726;52.000;5.954;2022-08-19T05:00:28;100969.13;;;14.83;93.57
67931;BME280;54726;52.000;5.954;2022-08-19T05:01:30;100968.16;;;14.84;93.56
67931;BME280;54726;52.000;5.954;2022-08-19T05:02:30;100974.44;;;14.83;93.41
67931;BME280;54726;52.000;5.954;2022-08-19T05:03:32;100978.09;;;14.82;93.46
67931;BME280;54726;52.000;5.954;2022-08-19T05:04:33;100972.75;;;14.82;93.64
67931;BME280;54726;52.000;5.954;2022-08-19T05:05:33;100973.59;;;14.83;93.62
67931;BME280;54726;52.000;5.954;2022-08-19T05:06:34;100973.59;;;14.83;93.39
67931;BME280;54726;52.000;5.954;2022-08-19T05:07:35;100976.34;;;14.81;93.52
67931;BME280;54726;52.000;5.954;2022-08-19T05:08:37;100974.63;;;14.80;93.84
67931;BME280;54726;52.000;5.954;2022-08-19T05:09:37;100976.50;;;14.78;93.74
67931;BME280;54726;52.000;5.954;2022-08-19T05:10:38;100971.34;;;14.75;94.04
67931;BME280;54726;52.000;5.954;2022-08-19T05:11:39;100973.09;;;14.76;94.05
67931;BME280;54726;52.000;5.954;2022-08-19T05:12:41;100974.81;;;14.77;93.88
67931;BME280;54726;52.000;5.954;2022-08-19T05:13:42;100979.19;;;14.78;93.86
67931;BME280;54726;52.000;5.954;2022-08-19T05:14:43;100976.50;;;14.78;94.05
67931;BME280;54726;52.000;5.954;2022-08-19T05:15:44;100979.97;;;14.80;93.67
67931;BME280;54726;52.000;5.954;2022-08-19T05:16:53;100977.13;;;14.83;93.68
67931;BME280;54726;52.000;5.954;2022-08-19T05:17:53;100974.56;;;14.82;93.62
67931;BME280;54726;52.000;5.954;2022-08-19T05:18:54;100978.94;;;14.83;93.66
67931;BME280;54726;52.000;5.954;2022-08-19T05:19:55;100973.50;;;14.84;93.62
67931;BME280;54726;52.000;5.954;2022-08-19T05:20:56;100977.97;;;14.84;93.70